Главная страница
METAR-TAF:

METAR-TAF

Аэропорты :

Парос, Греция

широта: 37-01-15N, долгота: 025-06-46E, высота над уровнем моря: 38 м

Текущие метеонаблюдения

Эта сводка был подготовлена 35 минут назад, в 00:50 UTC
Ветер 25 Узел от восточно-юго-восточный
Температура 20°C
Влажность 60%
Давление 1012 hPa

METAR: LGPA 230050Z AUTO 11025KT //// // ////// 20/12 Q1012 RE//

Время: 04:25 (01:25 UTC)


TAF: отсутствует

Метеонаблюдения и прогнозы для более 4000 аэропортов (сводки METAR и TAF).

Имеющиеся станции представлены на карте желтыми и красными точками.

Чтобы увидеть название станции, наведите на нее мышь.

Затем щелкните, чтобы увидеть метеонаблюдения и метеопрогнозы.

Управление картой: чтобы увеличить масштаб, щелкните зеленые кнопки с черным крестиком; чтобы уменьшить масштаб, щелкните зеленую кнопку с тире; для просмотра соседних карт щелкайте зеленые стрелки.


METAR-TAF: